Time;durP1;ratioP1;P1;durP2;ratioP2;P2;SDS_P1;SDS_P2;PMS_P1;PMS_P2;Temp;Humidity;BMP_temperature;BMP_pressure;BME280_temperature;BME280_humidity;BME280_pressure;Samples;Min_cycle;Max_cycle;Signal;HPM_P1;HPM_P2
2023/01/09 00:00:52;;;;;;;3.47;2.30;;;;;;;6.43;90.97;96910.56;5062069;28;20035;-79
2023/01/09 00:03:17;;;;;;;3.28;2.20;;;;;;;6.51;89.78;96910.03;5060200;28;20077;-79
2023/01/09 00:05:43;;;;;;;3.05;2.17;;;;;;;6.50;90.79;96906.59;5069310;28;20099;-79
2023/01/09 00:08:08;;;;;;;5.22;2.63;;;;;;;6.24;90.69;96891.03;5056665;28;20041;-79
2023/01/09 00:10:34;;;;;;;4.07;2.33;;;;;;;6.53;90.33;96894.66;5033961;28;20032;-80
2023/01/09 00:12:59;;;;;;;2.97;1.65;;;;;;;6.55;90.11;96881.94;5059347;28;20028;-79
2023/01/09 00:15:25;;;;;;;2.20;1.70;;;;;;;6.33;90.22;96869.03;5057554;28;20500;-79
2023/01/09 00:17:50;;;;;;;2.20;1.98;;;;;;;6.41;90.78;96872.97;5034001;28;20036;-79
2023/01/09 00:20:16;;;;;;;3.38;2.17;;;;;;;6.50;90.63;96884.59;5037940;28;20025;-79
2023/01/09 00:22:41;;;;;;;2.40;2.20;;;;;;;6.31;90.31;96871.13;5025706;28;20032;-79
2023/01/09 00:25:07;;;;;;;4.15;2.00;;;;;;;6.39;91.48;96869.78;5041014;28;20029;-79
2023/01/09 00:27:34;;;;;;;3.70;2.10;;;;;;;6.42;90.62;96875.31;5023629;28;20598;-79
2023/01/09 00:30:00;;;;;;;2.88;1.95;;;;;;;6.35;90.52;96866.91;5054237;28;20400;-79
2023/01/09 00:32:26;;;;;;;2.90;2.15;;;;;;;6.47;89.58;96862.06;5053282;28;20040;-79
2023/01/09 00:34:52;;;;;;;2.45;1.73;;;;;;;6.50;90.78;96866.03;5046490;28;20387;-79
2023/01/09 00:37:18;;;;;;;1.92;1.83;;;;;;;6.39;90.81;96861.84;5046035;28;20032;-79
2023/01/09 00:39:43;;;;;;;6.65;2.63;;;;;;;6.30;89.99;96860.81;5046399;28;20391;-80
2023/01/09 00:42:13;;;;;;;2.45;1.90;;;;;;;6.45;90.85;96868.69;5036400;28;20029;-80
2023/01/09 00:44:49;;;;;;;2.38;2.17;;;;;;;6.39;90.45;96862.63;5055562;28;20438;-79
2023/01/09 00:47:23;;;;;;;2.30;2.00;;;;;;;6.40;90.98;96852.84;5058037;28;20385;-80
2023/01/09 00:49:50;;;;;;;5.20;2.42;;;;;;;6.45;90.43;96844.84;5039604;28;20029;-79
2023/01/09 00:52:16;;;;;;;2.72;2.28;;;;;;;6.60;90.44;96856.19;5061071;28;20047;-80
2023/01/09 00:54:43;;;;;;;4.10;1.98;;;;;;;6.73;89.44;96860.91;5058320;28;20029;-79
2023/01/09 00:57:11;;;;;;;2.25;1.90;;;;;;;6.56;90.47;96860.47;5046659;28;20028;-79
2023/01/09 00:59:37;;;;;;;2.53;1.98;;;;;;;6.41;90.96;96846.47;5071014;28;20028;-79
2023/01/09 01:02:02;;;;;;;3.00;2.30;;;;;;;6.53;90.61;96855.69;5028716;28;20033;-79
2023/01/09 01:09:55;;;;;;;4.43;2.22;;;;;;;6.52;90.92;96867.38;5062231;28;20123;-80
2023/01/09 01:12:21;;;;;;;3.35;2.53;;;;;;;6.66;90.49;96865.69;5041301;28;20123;-80
2023/01/09 01:14:46;;;;;;;5.57;2.38;;;;;;;6.61;90.30;96860.44;5040753;28;20476;-80
2023/01/09 01:17:12;;;;;;;2.33;2.13;;;;;;;6.38;91.44;96860.25;5044837;28;20615;-80
2023/01/09 01:19:37;;;;;;;3.83;2.78;;;;;;;6.33;91.51;96862.94;5022877;28;20029;-80
2023/01/09 01:22:03;;;;;;;6.15;3.25;;;;;;;6.39;92.40;96867.13;5047420;28;20055;-80
2023/01/09 01:24:28;;;;;;;5.30;2.88;;;;;;;6.28;92.40;96868.22;5078793;28;20115;-80
2023/01/09 01:26:53;;;;;;;3.65;2.42;;;;;;;6.50;91.41;96856.25;5036210;28;20043;-80
2023/01/09 01:29:19;;;;;;;3.25;2.30;;;;;;;6.51;90.78;96860.47;5032446;28;20040;-80
2023/01/09 01:31:44;;;;;;;5.45;3.13;;;;;;;6.55;91.20;96866.03;5041227;28;20082;-80
2023/01/09 01:34:10;;;;;;;4.30;2.85;;;;;;;6.50;91.33;96858.91;5029618;28;20036;-80
2023/01/09 01:36:35;;;;;;;3.65;3.00;;;;;;;6.52;90.84;96845.38;5058645;28;20035;-80
2023/01/09 01:39:00;;;;;;;6.65;3.78;;;;;;;6.42;91.93;96861.31;5027943;28;20040;-80
2023/01/09 01:41:29;;;;;;;5.53;3.67;;;;;;;6.24;92.64;96854.75;5052941;28;20052;-81
2023/01/09 01:43:58;;;;;;;5.15;3.97;;;;;;;6.38;93.13;96868.19;5052285;28;20032;-80
2023/01/09 01:46:24;;;;;;;7.32;4.50;;;;;;;6.48;92.44;96862.88;5040618;28;20052;-80
2023/01/09 01:48:55;;;;;;;6.18;3.70;;;;;;;6.14;93.43;96861.94;5044096;28;20056;-80
2023/01/09 01:51:23;;;;;;;6.50;4.75;;;;;;;6.27;93.22;96866.66;5045199;28;20044;-80
2023/01/09 01:53:53;;;;;;;8.18;4.43;;;;;;;6.19;93.64;96859.25;5063660;28;20082;-81
2023/01/09 01:56:27;;;;;;;3.53;3.10;;;;;;;6.46;92.69;96859.69;5044374;28;20033;-81
2023/01/09 01:59:14;;;;;;;8.07;5.93;;;;;;;6.21;93.86;96862.41;5035452;28;20028;-81
2023/01/09 02:01:42;;;;;;;7.10;4.88;;;;;;;6.05;94.52;96853.72;5060628;28;20055;-81
2023/01/09 02:04:08;;;;;;;6.53;5.57;;;;;;;6.07;94.35;96836.50;5030689;28;20448;-81
2023/01/09 02:06:34;;;;;;;6.47;5.50;;;;;;;6.26;93.96;96841.22;5041839;28;20124;-81
2023/01/09 02:09:03;;;;;;;11.20;6.32;;;;;;;6.09;94.12;96843.38;5032440;28;20025;-81
2023/01/09 02:11:28;;;;;;;5.78;4.32;;;;;;;6.24;93.54;96838.84;5035137;28;20032;-81
2023/01/09 02:13:54;;;;;;;7.55;5.45;;;;;;;6.40;93.12;96850.97;5047761;28;20558;-81
2023/01/09 02:16:38;;;;;;;7.88;6.05;;;;;;;6.29;93.94;96848.63;5036216;28;20028;-81
2023/01/09 02:19:06;;;;;;;10.40;5.28;;;;;;;6.46;92.91;96849.09;5050064;28;20028;-81
2023/01/09 02:21:40;;;;;;;4.82;4.32;;;;;;;6.37;92.59;96843.56;5062593;28;20724;-80
2023/01/09 02:24:13;;;;;;;6.22;4.93;;;;;;;6.57;92.04;96838.19;5064484;28;20461;-81
2023/01/09 02:26:55;;;;;;;6.90;4.88;;;;;;;6.54;91.73;96829.97;5064555;28;20033;-81
2023/01/09 02:29:29;;;;;;;10.90;7.68;;;;;;;6.21;94.32;96820.03;5060225;28;20021;-81
2023/01/09 02:32:15;;;;;;;10.45;7.40;;;;;;;5.93;97.08;96821.44;5043424;28;20035;-81
2023/01/09 02:35:13;;;;;;;8.82;5.35;;;;;;;6.16;94.80;96814.78;5050634;28;20032;-80
2023/01/09 02:38:11;;;;;;;8.20;5.97;;;;;;;6.09;95.01;96816.91;5028568;28;20032;-81
2023/01/09 02:40:40;;;;;;;8.52;6.22;;;;;;;5.98;95.86;96802.91;5031290;28;20036;-81
2023/01/09 02:43:07;;;;;;;9.80;6.38;;;;;;;6.12;95.06;96814.50;5065318;28;20400;-81
2023/01/09 02:45:32;;;;;;;9.85;6.25;;;;;;;6.01;95.48;96808.44;5076374;28;20033;-81
2023/01/09 02:47:57;;;;;;;10.45;7.20;;;;;;;6.07;95.90;96803.16;5039954;28;20028;-81
2023/01/09 02:50:40;;;;;;;11.63;6.10;;;;;;;6.08;95.57;96800.22;5038655;28;20063;-81
2023/01/09 02:53:15;;;;;;;9.43;7.65;;;;;;;6.19;94.76;96798.31;5068044;28;20028;-81
2023/01/09 02:55:52;;;;;;;13.60;7.78;;;;;;;6.14;95.40;96803.66;5048707;28;20110;-81
2023/01/09 02:58:50;;;;;;;6.97;5.60;;;;;;;6.39;93.55;96790.31;5040795;28;20036;-81
2023/01/09 03:01:21;;;;;;;9.35;6.55;;;;;;;5.97;95.59;96783.56;5056386;28;20039;-81
2023/01/09 03:03:49;;;;;;;11.68;8.05;;;;;;;6.04;95.71;96786.75;5062087;28;20032;-81
2023/01/09 03:06:19;;;;;;;13.32;7.50;;;;;;;6.08;95.16;96776.38;5044963;28;20047;-81
2023/01/09 03:08:50;;;;;;;7.57;6.32;;;;;;;6.09;95.84;96785.13;5060728;28;20108;-81
2023/01/09 03:11:15;;;;;;;8.77;6.55;;;;;;;6.32;94.47;96780.00;5057480;28;20374;-81
2023/01/09 03:13:51;;;;;;;7.90;5.90;;;;;;;5.95;95.87;96761.88;5039681;28;20135;-80
2023/01/09 03:16:20;;;;;;;6.82;5.75;;;;;;;6.35;94.30;96781.31;5058466;28;20111;-81
2023/01/09 03:18:49;;;;;;;7.97;6.65;;;;;;;6.24;94.02;96774.47;5061324;28;20048;-81
2023/01/09 03:21:15;;;;;;;6.82;5.72;;;;;;;6.43;93.04;96778.09;5043638;28;20083;-81
2023/01/09 03:23:51;;;;;;;8.93;5.80;;;;;;;6.11;95.02;96767.91;5043827;28;20392;-80
2023/01/09 03:26:17;;;;;;;8.15;5.75;;;;;;;6.33;94.34;96773.66;5055700;28;20086;-81
2023/01/09 03:28:43;;;;;;;8.05;6.53;;;;;;;6.28;94.52;96763.06;5060351;28;20044;-80
2023/01/09 03:31:09;;;;;;;6.28;5.22;;;;;;;6.33;93.61;96763.06;5037052;28;20048;-81
2023/01/09 03:33:35;;;;;;;7.78;5.30;;;;;;;6.48;92.98;96757.69;5043161;28;21255;-80
2023/01/09 03:36:00;;;;;;;6.65;5.85;;;;;;;6.49;93.87;96769.84;5044277;28;20024;-80
2023/01/09 03:38:26;;;;;;;9.38;6.68;;;;;;;6.37;94.08;96764.09;5057627;28;20491;-80
2023/01/09 03:40:51;;;;;;;6.10;4.65;;;;;;;6.48;93.19;96768.28;5038941;28;20159;-80
2023/01/09 03:43:16;;;;;;;8.35;5.68;;;;;;;6.42;92.36;96750.81;5035506;28;20032;-80
2023/01/09 03:45:42;;;;;;;8.50;6.03;;;;;;;6.55;92.59;96760.78;5051365;28;20048;-80
2023/01/09 03:48:07;;;;;;;6.63;5.55;;;;;;;6.41;93.17;96757.19;5044039;28;20775;-80
2023/01/09 03:50:33;;;;;;;6.78;5.03;;;;;;;6.69;91.69;96767.09;5064660;28;20033;-80
2023/01/09 03:52:59;;;;;;;9.38;5.28;;;;;;;6.57;92.55;96758.69;5044093;28;20514;-80
2023/01/09 03:55:24;;;;;;;7.97;5.57;;;;;;;6.48;93.22;96762.97;5039962;28;20119;-80
2023/01/09 03:57:51;;;;;;;7.47;5.90;;;;;;;6.33;93.67;96754.31;5044235;28;20028;-80
2023/01/09 04:00:18;;;;;;;7.47;5.38;;;;;;;6.59;92.36;96755.75;5048369;28;20539;-80
2023/01/09 04:02:43;;;;;;;5.68;5.00;;;;;;;6.66;91.96;96754.38;5044036;28;20437;-80
2023/01/09 04:05:09;;;;;;;6.95;4.85;;;;;;;6.70;92.63;96773.19;5058423;28;20028;-80
2023/01/09 04:07:34;;;;;;;8.05;5.85;;;;;;;6.45;93.14;96770.66;5037617;28;20775;-80
2023/01/09 04:10:00;;;;;;;8.60;6.63;;;;;;;6.35;93.70;96765.44;5042495;28;20088;-80
2023/01/09 04:12:25;;;;;;;5.78;5.10;;;;;;;6.71;91.68;96764.16;5030110;28;20032;-80
2023/01/09 04:14:50;;;;;;;6.65;4.80;;;;;;;6.72;91.63;96755.16;5040811;28;20124;-80
2023/01/09 04:17:16;;;;;;;5.97;4.85;;;;;;;6.71;92.06;96764.16;5034944;28;20059;-80
2023/01/09 04:19:41;;;;;;;5.18;4.47;;;;;;;6.41;93.18;96773.06;5059265;28;20054;-80
2023/01/09 04:22:07;;;;;;;4.47;3.97;;;;;;;6.60;92.40;96768.72;5041398;28;20082;-80
2023/01/09 04:24:32;;;;;;;4.85;4.28;;;;;;;6.70;91.52;96770.53;5043488;28;20166;-80
2023/01/09 04:26:58;;;;;;;3.72;3.33;;;;;;;6.67;90.88;96763.94;5042217;28;20071;-80
2023/01/09 04:29:23;;;;;;;4.15;2.95;;;;;;;6.61;91.70;96780.94;5034635;28;20025;-80
2023/01/09 04:31:48;;;;;;;4.20;3.28;;;;;;;6.59;91.60;96783.06;5025406;28;20181;-80
2023/01/09 04:34:14;;;;;;;3.45;2.72;;;;;;;6.64;91.92;96790.19;5050354;28;20033;-80
2023/01/09 04:36:40;;;;;;;2.35;2.15;;;;;;;6.61;91.02;96794.19;5047621;28;20054;-80
2023/01/09 04:39:05;;;;;;;2.45;2.10;;;;;;;6.55;91.45;96792.59;5057771;28;20116;-80
2023/01/09 04:41:49;;;;;;;3.65;2.20;;;;;;;6.61;91.51;96806.63;5051730;28;20025;-80
2023/01/09 04:44:15;;;;;;;2.42;1.80;;;;;;;6.56;91.92;96788.91;5032814;28;20028;-80
2023/01/09 04:46:40;;;;;;;1.95;1.75;;;;;;;6.39;92.36;96800.91;5039725;28;20602;-80
2023/01/09 04:49:06;;;;;;;2.30;2.10;;;;;;;6.44;92.32;96807.00;5066160;28;20119;-80
2023/01/09 04:51:31;;;;;;;1.80;1.70;;;;;;;6.53;91.89;96823.13;5037462;28;20107;-79
2023/01/09 04:53:56;;;;;;;1.98;1.80;;;;;;;6.47;92.70;96816.22;5030769;28;20598;-79
2023/01/09 04:56:22;;;;;;;1.80;1.70;;;;;;;6.53;92.00;96817.81;5041678;28;20627;-79
2023/01/09 04:58:47;;;;;;;1.30;1.20;;;;;;;6.37;92.53;96803.84;5042285;28;20032;-79
2023/01/09 05:01:12;;;;;;;2.22;1.75;;;;;;;6.41;92.37;96827.91;5056690;28;20025;-79
2023/01/09 05:03:38;;;;;;;2.10;1.73;;;;;;;6.49;92.29;96843.25;5039996;28;20502;-80
2023/01/09 05:06:03;;;;;;;1.90;1.63;;;;;;;6.41;91.72;96847.25;5035167;28;20385;-80
2023/01/09 05:08:28;;;;;;;1.70;1.45;;;;;;;6.38;92.53;96847.00;5031897;28;20048;-79
2023/01/09 05:10:54;;;;;;;4.40;1.15;;;;;;;6.42;92.57;96853.38;5038263;28;20526;-79
2023/01/09 05:13:19;;;;;;;2.65;1.70;;;;;;;6.41;92.67;96854.41;5042141;28;20084;-79
2023/01/09 05:15:45;;;;;;;1.70;1.42;;;;;;;6.25;92.26;96864.25;5057659;28;20039;-79
2023/01/09 05:18:10;;;;;;;1.08;0.98;;;;;;;6.37;92.20;96866.63;5054958;28;20420;-80
2023/01/09 05:20:36;;;;;;;3.85;1.50;;;;;;;6.38;92.58;96865.53;5029751;28;20033;-80
2023/01/09 05:23:01;;;;;;;1.25;1.17;;;;;;;6.27;92.55;96859.47;5043432;28;20031;-80
2023/01/09 05:25:27;;;;;;;2.13;1.10;;;;;;;6.43;91.87;96870.84;5052096;28;20033;-80
2023/01/09 05:27:52;;;;;;;1.20;1.10;;;;;;;6.42;92.21;96880.63;5065908;28;20036;-80
2023/01/09 05:30:18;;;;;;;1.48;1.08;;;;;;;6.38;91.90;96886.72;5051883;28;20036;-80
2023/01/09 05:32:43;;;;;;;0.82;0.82;;;;;;;6.44;91.95;96880.38;5054876;28;20040;-80
2023/01/09 05:35:09;;;;;;;1.10;1.00;;;;;;;6.31;91.17;96886.25;5030552;28;20028;-79
2023/01/09 05:37:34;;;;;;;2.50;0.90;;;;;;;6.36;90.96;96884.38;5041028;28;20048;-80
2023/01/09 05:40:00;;;;;;;2.58;0.85;;;;;;;6.40;90.88;96884.63;5047283;28;20042;-81
2023/01/09 05:42:25;;;;;;;1.05;0.95;;;;;;;6.28;91.33;96870.88;5065231;28;20029;-80
2023/01/09 05:44:51;;;;;;;0.80;0.80;;;;;;;6.41;91.11;96880.91;5029340;28;20056;-80
2023/01/09 05:47:16;;;;;;;2.63;0.95;;;;;;;6.34;90.46;96875.09;5051446;28;20119;-80
2023/01/09 05:49:41;;;;;;;0.57;0.57;;;;;;;6.25;90.67;96874.06;5045400;28;20036;-80
2023/01/09 05:52:07;;;;;;;1.08;0.85;;;;;;;6.34;90.74;96888.34;5037607;28;20044;-80
2023/01/09 05:54:33;;;;;;;0.88;0.88;;;;;;;6.38;90.00;96900.78;5044048;28;20037;-80
2023/01/09 05:56:58;;;;;;;1.95;0.80;;;;;;;6.37;90.06;96896.56;5042484;28;20112;-81
2023/01/09 05:59:24;;;;;;;1.13;0.73;;;;;;;6.45;90.07;96909.25;5026858;28;21385;-80
2023/01/09 06:01:49;;;;;;;0.57;0.57;;;;;;;6.36;89.33;96916.16;5027102;28;20037;-80
2023/01/09 06:04:15;;;;;;;1.00;0.47;;;;;;;6.31;90.63;96899.50;5040830;28;20036;-80
2023/01/09 06:06:40;;;;;;;0.52;0.52;;;;;;;6.33;90.21;96902.66;5033922;28;20125;-80
2023/01/09 06:09:06;;;;;;;0.75;0.75;;;;;;;6.25;90.13;96893.41;5022420;28;20036;-80
2023/01/09 06:11:34;;;;;;;0.68;0.68;;;;;;;6.35;90.13;96916.44;5051298;28;20036;-80
2023/01/09 06:14:00;;;;;;;0.38;0.38;;;;;;;6.34;89.56;96920.13;5051030;28;20043;-80
2023/01/09 06:16:26;;;;;;;1.02;0.65;;;;;;;6.26;89.74;96910.91;5028753;28;20101;-80
2023/01/09 06:18:51;;;;;;;0.50;0.43;;;;;;;6.36;89.38;96924.09;5066693;28;20118;-80
2023/01/09 06:21:17;;;;;;;1.20;0.68;;;;;;;6.26;90.31;96926.78;5035835;28;20077;-80
2023/01/09 06:23:42;;;;;;;1.08;0.50;;;;;;;6.34;89.59;96933.38;5036067;28;20048;-80
2023/01/09 06:26:07;;;;;;;0.50;0.50;;;;;;;6.33;90.15;96937.09;5020510;28;20049;-80
2023/01/09 06:28:33;;;;;;;0.52;0.52;;;;;;;6.34;89.61;96938.69;5055895;28;20048;-80
2023/01/09 06:30:58;;;;;;;0.50;0.50;;;;;;;6.31;89.65;96937.34;5012738;28;20454;-80
2023/01/09 06:33:23;;;;;;;0.80;0.80;;;;;;;6.17;89.98;96935.53;5055098;28;20032;-81
2023/01/09 06:35:49;;;;;;;175.18;15.15;;;;;;;6.18;89.83;96948.50;5046689;28;20049;-80
2023/01/09 06:38:14;;;;;;;1.27;0.95;;;;;;;6.26;89.55;96945.34;5054576;28;20059;-80
2023/01/09 06:40:40;;;;;;;1.08;0.75;;;;;;;6.26;89.20;96963.06;5033936;28;20035;-80
2023/01/09 06:43:05;;;;;;;0.98;0.88;;;;;;;6.22;88.93;96973.41;5027363;28;20025;-81
2023/01/09 06:45:30;;;;;;;1.80;0.80;;;;;;;6.24;88.88;96971.28;5052003;28;20071;-81
2023/01/09 06:47:56;;;;;;;1.63;0.70;;;;;;;6.27;89.43;96975.28;5031864;28;20045;-81
2023/01/09 06:50:21;;;;;;;0.57;0.47;;;;;;;6.17;89.72;96977.91;5053361;28;20108;-81
2023/01/09 06:52:46;;;;;;;1.17;0.77;;;;;;;6.17;88.92;96975.25;5058302;28;20036;-81
2023/01/09 06:55:12;;;;;;;2.15;1.13;;;;;;;6.09;89.37;96986.41;5027724;28;20111;-81
2023/01/09 06:57:38;;;;;;;0.60;0.60;;;;;;;5.99;89.76;96980.03;5038049;28;20040;-81
2023/01/09 07:00:04;;;;;;;1.33;0.82;;;;;;;6.14;88.64;96989.81;5064322;28;20863;-81
2023/01/09 07:02:30;;;;;;;0.82;0.75;;;;;;;6.18;88.78;96980.28;5054324;28;20081;-81
2023/01/09 07:04:55;;;;;;;0.60;0.60;;;;;;;6.13;89.51;96990.09;5067684;28;20396;-81
2023/01/09 07:07:21;;;;;;;1.77;1.45;;;;;;;6.19;89.13;97003.06;5044377;28;20044;-81
2023/01/09 07:09:47;;;;;;;1.52;1.05;;;;;;;6.18;88.52;97004.13;5052587;28;20037;-81
2023/01/09 07:12:13;;;;;;;2.95;1.83;;;;;;;6.15;88.14;97025.84;5056938;28;20032;-81
2023/01/09 07:14:39;;;;;;;1.67;1.00;;;;;;;6.16;89.71;97021.34;5035279;28;20032;-81
2023/01/09 07:17:04;;;;;;;0.80;0.80;;;;;;;6.01;89.15;97009.69;5029925;28;20039;-81
2023/01/09 07:19:30;;;;;;;0.82;0.68;;;;;;;6.16;88.90;97016.06;5047054;28;20029;-81
2023/01/09 07:21:55;;;;;;;0.88;0.75;;;;;;;6.24;89.05;97021.63;5064500;28;20029;-81
2023/01/09 07:24:20;;;;;;;1.45;0.90;;;;;;;6.25;89.18;97039.09;5041799;28;20040;-82
2023/01/09 07:26:46;;;;;;;0.57;0.57;;;;;;;6.32;88.76;97044.94;5049386;28;20432;-82
2023/01/09 07:29:11;;;;;;;1.02;0.90;;;;;;;6.30;89.00;97044.41;5057859;28;20077;-81
2023/01/09 07:31:37;;;;;;;2.88;1.20;;;;;;;6.21;88.86;97039.88;5046726;28;20141;-82
2023/01/09 07:34:03;;;;;;;8.93;5.45;;;;;;;6.05;88.97;97045.16;5060291;28;20063;-82
2023/01/09 07:36:28;;;;;;;3.20;1.73;;;;;;;5.98;88.93;97051.81;5048855;28;20404;-81
2023/01/09 07:38:54;;;;;;;3.25;1.25;;;;;;;6.06;90.08;97051.28;5025824;28;20024;-82
2023/01/09 07:41:19;;;;;;;2.70;1.88;;;;;;;5.96;88.99;97052.03;5018865;28;20029;-83
2023/01/09 07:43:44;;;;;;;1.60;1.48;;;;;;;5.91;90.03;97054.69;5039684;28;20120;-81
2023/01/09 07:46:10;;;;;;;1.33;1.08;;;;;;;6.11;89.27;97055.78;5044176;28;20480;-81
2023/01/09 07:48:35;;;;;;;3.17;1.40;;;;;;;6.15;88.21;97055.00;5039246;28;20035;-81
2023/01/09 07:51:01;;;;;;;1.23;1.13;;;;;;;5.99;88.92;97061.31;5061516;28;20044;-81
2023/01/09 07:53:26;;;;;;;2.30;1.50;;;;;;;6.09;89.61;97064.00;5050621;28;20064;-81
2023/01/09 07:55:51;;;;;;;2.03;1.20;;;;;;;6.00;88.49;97061.06;5043305;28;20063;-81
2023/01/09 07:58:17;;;;;;;1.10;1.00;;;;;;;5.91;88.84;97078.53;5037744;28;20100;-81
2023/01/09 08:00:42;;;;;;;3.50;1.27;;;;;;;5.81;89.18;97065.22;5053843;28;20472;-81
2023/01/09 08:03:08;;;;;;;4.15;1.30;;;;;;;5.69;89.01;97059.38;5022579;28;20036;-81
2023/01/09 08:05:34;;;;;;;4.00;3.17;;;;;;;5.76;88.77;97083.75;5033570;28;20541;-81
2023/01/09 08:08:00;;;;;;;1.38;1.10;;;;;;;5.80;89.04;97090.13;5073661;28;20021;-81
2023/01/09 08:10:26;;;;;;;2.42;1.33;;;;;;;5.78;89.48;97083.50;5053986;28;20038;-81
2023/01/09 08:12:51;;;;;;;5.60;2.13;;;;;;;5.86;88.72;97085.66;5026839;28;20075;-81
2023/01/09 08:15:17;;;;;;;1.17;1.10;;;;;;;5.83;89.37;97092.22;5048687;28;20500;-81
2023/01/09 08:17:44;;;;;;;2.40;1.25;;;;;;;5.82;88.01;97076.63;5040580;28;20143;-81
2023/01/09 08:20:12;;;;;;;3.72;1.40;;;;;;;5.87;88.57;97100.50;5030372;28;20029;-81
2023/01/09 08:22:41;;;;;;;3.58;2.47;;;;;;;5.71;88.40;97096.97;5067150;28;20025;-81
2023/01/09 08:25:11;;;;;;;2.95;1.42;;;;;;;5.68;88.72;97094.81;5051237;28;20176;-81
2023/01/09 08:27:36;;;;;;;1.10;1.00;;;;;;;5.81;89.00;97101.50;5038917;28;20033;-81
2023/01/09 08:30:02;;;;;;;1.63;1.33;;;;;;;5.78;88.57;97100.19;5064712;28;20040;-81
2023/01/09 08:32:27;;;;;;;2.83;0.90;;;;;;;5.77;87.85;97109.16;5062566;28;20024;-80
2023/01/09 08:34:53;;;;;;;1.55;1.05;;;;;;;5.74;88.47;97103.59;5066186;28;20401;-80
2023/01/09 08:37:18;;;;;;;5.47;1.40;;;;;;;5.71;88.38;97104.09;5043592;28;20378;-81
2023/01/09 08:39:43;;;;;;;2.38;1.80;;;;;;;5.76;88.69;97115.53;5029932;28;20032;-81
2023/01/09 08:47:38;;;;;;;2.50;1.05;;;;;;;5.76;88.33;97106.78;5059791;28;20047;-82
2023/01/09 08:50:07;;;;;;;2.65;1.13;;;;;;;5.75;88.57;97119.22;5062687;28;20024;-80
2023/01/09 08:52:32;;;;;;;3.58;1.08;;;;;;;5.90;88.09;97123.78;5034937;28;20116;-80
2023/01/09 08:54:58;;;;;;;2.50;0.63;;;;;;;5.82;88.49;97113.66;5063191;28;20112;-80
2023/01/09 08:57:23;;;;;;;2.85;1.00;;;;;;;5.80;87.94;97106.00;5045693;28;20036;-79
2023/01/09 08:59:49;;;;;;;2.17;1.30;;;;;;;5.91;88.72;97120.09;5058083;28;21708;-80
2023/01/09 09:02:14;;;;;;;2.20;1.50;;;;;;;5.82;88.32;97130.34;5025105;28;20388;-80
2023/01/09 09:04:40;;;;;;;2.67;1.05;;;;;;;5.83;88.45;97118.69;5039915;28;20043;-80
2023/01/09 09:07:09;;;;;;;1.42;0.70;;;;;;;5.95;88.24;97134.38;5041743;28;20025;-80
2023/01/09 09:09:34;;;;;;;4.43;1.30;;;;;;;5.94;88.38;97127.53;5048141;28;20029;-80
2023/01/09 09:11:59;;;;;;;2.90;1.40;;;;;;;5.83;88.11;97116.06;5038545;28;20028;-80
2023/01/09 09:17:09;;;;;;;4.43;2.90;;;;;;;5.96;88.03;97120.88;5056920;28;20079;-82
2023/01/09 09:19:34;;;;;;;5.47;4.05;;;;;;;5.89;88.29;97127.50;5057667;28;20029;-82
2023/01/09 09:21:59;;;;;;;5.45;3.90;;;;;;;5.87;88.18;97108.44;5051936;28;20028;-80
2023/01/09 09:24:25;;;;;;;4.05;2.95;;;;;;;6.04;87.97;97128.34;5031459;28;20134;-82
2023/01/09 09:26:50;;;;;;;3.25;2.53;;;;;;;5.88;88.63;97110.81;5034236;28;20032;-80
2023/01/09 09:29:15;;;;;;;4.82;3.30;;;;;;;6.02;88.25;97117.22;5058075;28;20024;-80
2023/01/09 09:31:41;;;;;;;5.60;3.38;;;;;;;5.90;88.09;97100.75;5049944;28;20503;-80
2023/01/09 09:34:06;;;;;;;3.90;2.63;;;;;;;6.00;88.70;97129.94;5077661;28;20070;-80
2023/01/09 09:36:32;;;;;;;4.53;3.53;;;;;;;6.10;88.64;97129.13;5043861;28;20047;-80
2023/01/09 09:38:57;;;;;;;4.15;3.15;;;;;;;5.91;87.90;97118.25;5060378;28;20032;-80
2023/01/09 09:44:45;;;;;;;14.82;7.68;;;;;;;6.06;88.33;97136.00;5054912;28;20047;-80
2023/01/09 09:47:26;;;;;;;5.10;2.30;;;;;;;5.98;88.49;97123.28;5055328;28;20021;-80
2023/01/09 09:49:52;;;;;;;5.47;2.90;;;;;;;6.05;88.49;97139.72;5038986;28;20074;-80
2023/01/09 09:52:48;;;;;;;5.75;2.70;;;;;;;5.92;88.75;97125.13;5060451;28;20025;-80
2023/01/09 09:55:22;;;;;;;5.43;4.75;;;;;;;5.99;88.37;97128.31;5054605;28;20147;-80
2023/01/09 09:57:50;;;;;;;3.70;3.40;;;;;;;5.87;88.70;97125.13;5061502;28;20484;-80
2023/01/09 10:00:22;;;;;;;6.15;3.60;;;;;;;5.95;88.10;97121.97;5057366;28;20480;-80
2023/01/09 10:02:59;;;;;;;4.10;2.80;;;;;;;5.98;87.75;97150.53;5043540;28;20028;-80
2023/01/09 10:05:32;;;;;;;2.95;2.63;;;;;;;5.97;88.38;97148.16;5058563;28;20472;-80
2023/01/09 10:08:04;;;;;;;2.45;2.20;;;;;;;5.98;88.03;97153.19;5055546;28;20064;-80
2023/01/09 10:10:42;;;;;;;5.57;2.60;;;;;;;5.91;87.96;97154.50;5058022;28;20058;-80
2023/01/09 10:16:05;;;;;;;2.83;1.75;;;;;;;6.07;88.19;97165.94;5065900;28;21886;-80
2023/01/09 10:18:54;;;;;;;5.75;3.38;;;;;;;6.02;87.90;97149.00;5064235;28;20040;-80
2023/01/09 10:21:20;;;;;;;3.95;2.00;;;;;;;6.11;87.62;97161.72;5068068;28;20098;-81
2023/01/09 10:24:03;;;;;;;4.53;2.13;;;;;;;6.19;88.30;97159.34;5049462;28;20054;-80
2023/01/09 10:26:35;;;;;;;2.67;1.90;;;;;;;6.20;87.80;97160.97;5064700;28;20116;-81
2023/01/09 10:29:36;;;;;;;3.00;1.95;;;;;;;6.16;88.15;97151.91;5068880;28;20085;-81
2023/01/09 10:32:34;;;;;;;1.92;1.75;;;;;;;6.22;87.99;97163.34;5074230;28;20028;-81
2023/01/09 10:35:36;;;;;;;2.60;1.80;;;;;;;6.19;86.79;97156.69;5048286;28;20025;-81
2023/01/09 10:38:05;;;;;;;1.65;1.42;;;;;;;6.28;87.57;97163.09;5047891;28;20538;-81
2023/01/09 10:40:39;;;;;;;2.63;2.03;;;;;;;6.32;86.47;97161.50;5031146;28;20422;-81
2023/01/09 10:43:40;;;;;;;5.03;2.28;;;;;;;6.32;87.08;97166.78;5027784;28;20024;-81
2023/01/09 10:46:17;;;;;;;2.67;1.48;;;;;;;6.22;86.79;97150.91;4987918;28;20045;-81
2023/01/09 10:48:55;;;;;;;6.80;1.67;;;;;;;6.18;87.75;97165.69;5030139;28;20074;-81
2023/01/09 10:51:26;;;;;;;3.95;1.25;;;;;;;6.36;87.15;97167.88;5037733;28;20396;-81
2023/01/09 10:53:55;;;;;;;5.18;1.52;;;;;;;6.34;86.36;97164.69;5053895;28;20074;-81
2023/01/09 10:56:32;;;;;;;3.13;0.98;;;;;;;6.33;87.14;97154.34;5042510;28;20127;-81
2023/01/09 10:58:58;;;;;;;4.90;1.90;;;;;;;6.44;86.73;97161.25;5064238;28;20021;-81
2023/01/09 11:01:26;;;;;;;2.20;1.38;;;;;;;6.35;87.21;97152.22;5030254;28;20033;-81
2023/01/09 11:03:51;;;;;;;6.78;1.20;;;;;;;6.40;86.76;97154.91;5051111;28;20634;-81
2023/01/09 11:06:35;;;;;;;2.90;1.20;;;;;;;6.24;86.76;97134.72;5049882;28;20459;-81
2023/01/09 11:09:02;;;;;;;3.40;1.08;;;;;;;6.26;87.03;97137.91;5046855;28;20024;-81
2023/01/09 11:11:41;;;;;;;6.35;1.52;;;;;;;6.30;87.51;97150.38;5034821;28;20321;-81
2023/01/09 11:14:30;;;;;;;2.47;0.88;;;;;;;6.15;85.56;97125.69;5048276;28;20044;-81
2023/01/09 11:16:58;;;;;;;3.83;1.20;;;;;;;6.44;86.05;97148.81;5058864;28;20409;-81
2023/01/09 11:19:24;;;;;;;2.25;0.80;;;;;;;6.62;86.06;97140.31;5040833;28;20032;-81
2023/01/09 11:22:06;;;;;;;1.58;0.98;;;;;;;6.56;86.92;97152.00;5054174;28;20025;-81
2023/01/09 11:24:31;;;;;;;3.33;0.95;;;;;;;6.42;86.22;97148.25;5044079;28;20052;-81
2023/01/09 11:27:12;;;;;;;1.55;1.02;;;;;;;6.64;86.50;97156.00;5016467;28;20119;-81
2023/01/09 11:29:39;;;;;;;7.13;2.75;;;;;;;6.53;85.93;97159.69;5055705;28;20016;-81
2023/01/09 11:32:04;;;;;;;5.03;1.40;;;;;;;6.75;85.94;97154.91;5035813;28;20077;-81
2023/01/09 11:34:32;;;;;;;7.85;3.65;;;;;;;6.75;86.15;97158.34;5050466;28;20025;-81
2023/01/09 11:37:07;;;;;;;5.55;1.63;;;;;;;6.78;86.50;97157.03;5036520;28;20043;-81
2023/01/09 11:39:38;;;;;;;6.35;1.55;;;;;;;6.78;85.74;97151.72;5044059;28;20614;-81
2023/01/09 11:42:05;;;;;;;5.03;3.90;;;;;;;6.60;85.77;97146.94;5056192;28;20411;-81
2023/01/09 11:44:32;;;;;;;2.30;2.10;;;;;;;6.79;85.72;97150.69;5033083;28;20387;-81
2023/01/09 11:46:58;;;;;;;3.70;2.45;;;;;;;6.85;84.17;97157.56;5036290;28;20053;-81
2023/01/09 11:49:27;;;;;;;3.15;2.40;;;;;;;6.91;85.10;97145.09;5070890;28;20358;-81
2023/01/09 11:52:19;;;;;;;3.00;2.45;;;;;;;7.04;84.74;97155.16;5035597;28;20510;-81
2023/01/09 11:54:57;;;;;;;3.03;1.60;;;;;;;6.96;84.02;97142.44;5054184;28;20396;-81
2023/01/09 11:57:23;;;;;;;3.13;2.58;;;;;;;7.16;84.70;97140.56;5047900;28;20035;-81
2023/01/09 11:59:49;;;;;;;5.97;4.82;;;;;;;7.22;84.90;97141.34;5055058;28;20048;-81
2023/01/09 12:02:24;;;;;;;6.15;5.47;;;;;;;7.20;83.24;97141.63;5051330;28;20029;-81
2023/01/09 12:04:58;;;;;;;4.72;3.05;;;;;;;7.15;84.49;97141.63;5058026;28;20068;-82
2023/01/09 12:07:49;;;;;;;2.47;2.28;;;;;;;7.19;83.91;97137.38;5079590;28;20119;-81